Date,TemperatureHighF,TemperatureAvgF,TemperatureLowF,DewpointHighF,DewpointAvgF,DewpointLowF,HumidityHigh,HumidityAvg,HumidityLow,PressureMaxIn,PressureMinIn,WindSpeedMaxMPH,WindSpeedAvgMPH,GustSpeedMaxMPH,PrecipitationSumIn
2013-1-1,28,26,25,-100,-100,-100,0,0,100,0.00,40.00,7,4,7,0.00
2013-1-2,25,24,19,-100,-100,-100,0,0,100,0.00,40.00,7,6,9,0.00
2013-1-3,22,20,16,-100,-100,-100,0,0,100,0.00,40.00,9,6,9,0.00
2013-1-4,23,20,17,-100,-100,-100,0,0,100,0.00,40.00,9,5,9,0.00
2013-1-11,24,21,15,-100,-100,-100,0,0,100,0.00,40.00,13,6,18,0.00
2013-1-12,19,17,15,-100,-100,-100,0,0,100,0.00,40.00,11,6,18,0.00
2013-1-13,18,15,11,-100,-100,-100,0,0,100,0.00,40.00,9,5,11,0.00
2013-1-14,24,21,17,-100,-100,-100,0,0,100,0.00,40.00,16,9,20,0.00
2013-1-15,27,22,21,-100,-100,-100,0,0,100,0.00,40.00,7,5,9,0.00
2013-1-16,22,20,16,-100,-100,-100,0,0,100,0.00,40.00,7,4,7,0.00
2013-1-18,30,30,30,-100,-100,-100,0,0,100,0.00,40.00,4,4,7,0.00
2013-1-21,28,28,28,-100,-100,-100,0,0,100,0.00,40.00,2,2,2,0.00
2013-1-25,31,31,31,-100,-100,-100,0,0,100,0.00,40.00,4,4,7,0.00
2013-1-29,32,30,30,-100,-100,-100,0,0,100,0.00,40.00,16,11,18,0.00
2013-1-30,39,36,32,-100,-100,-100,0,0,100,0.00,40.00,16,9,18,0.00
2013-1-31,39,39,39,-100,-100,-100,0,0,100,0.00,40.00,16,16,18,0.00
2013-2-2,37,37,37,-100,-100,-100,0,0,100,0.00,40.00,2,2,4,0.00
2013-2-4,40,40,39,-100,-100,-100,0,0,100,0.00,40.00,16,12,20,0.00
2013-2-7,38,36,35,-100,-100,-100,0,0,100,0.00,40.00,13,5,16,0.00
2013-2-9,29,28,27,-100,-100,-100,0,0,100,0.00,40.00,7,4,9,0.00
2013-2-10,30,28,26,-100,-100,-100,0,0,100,0.00,40.00,4,4,7,0.00
2013-2-11,30,29,29,-100,-100,-100,0,0,100,0.00,40.00,2,2,4,0.00
2013-2-12,35,35,35,-100,-100,-100,0,0,100,0.00,40.00,7,7,9,0.00
2013-2-18,34,34,33,-100,-100,-100,0,0,100,0.00,40.00,7,7,9,0.00
2013-2-19,37,37,37,-100,-100,-100,0,0,100,0.00,40.00,2,2,4,0.00
2013-2-21,33,33,33,-100,-100,-100,0,0,100,0.00,40.00,16,16,18,0.00
2013-3-3,31,31,31,-100,-100,-100,0,0,100,0.00,40.00,11,11,16,0.00
2013-3-4,33,32,32,-100,-100,-100,0,0,100,0.00,40.00,2,2,4,0.00
2013-3-5,21,21,21,-100,-100,-100,0,0,100,0.00,40.00,11,11,13,0.00
2013-3-27,36,36,36,-100,-100,-100,0,0,100,0.00,40.00,2,2,4,0.00
2013-3-28,42,42,42,-100,-100,-100,0,0,100,0.00,40.00,11,11,13,0.00
2013-4-14,33,33,33,-100,-100,-100,0,0,100,0.00,40.00,16,16,18,0.00
2013-4-15,35,35,35,-100,-100,-100,0,0,100,0.00,40.00,9,9,20,0.00
2013-4-17,40,40,40,-100,-100,-100,0,0,100,0.00,40.00,11,11,13,0.00
2013-4-18,42,42,42,-100,-100,-100,0,0,100,0.00,40.00,16,16,20,0.00
2013-5-6,60,60,60,-100,-100,-100,0,0,100,0.00,40.00,7,7,9,0.00
2013-5-31,55,55,55,-100,-100,-100,0,0,100,0.00,40.00,4,4,4,0.00
2013-7-9,75,75,75,-100,-100,-100,0,0,100,0.00,40.00,2,2,2,0.00
2013-7-10,57,57,57,-100,-100,-100,0,0,100,0.00,40.00,4,4,7,0.00